createdAt,value
2023-04-23T00:00:14.856Z,3.83
2023-04-23T00:02:46.894Z,3.67
2023-04-23T00:05:16.770Z,3.47
2023-04-23T00:07:47.350Z,3.40
2023-04-23T00:10:16.270Z,3.50
2023-04-23T00:12:45.771Z,3.30
2023-04-23T00:15:16.162Z,3.45
2023-04-23T00:17:44.815Z,3.33
2023-04-23T00:20:13.756Z,3.50
2023-04-23T00:22:42.392Z,3.65
2023-04-23T00:25:13.242Z,3.42
2023-04-23T00:27:41.838Z,3.70
2023-04-23T00:30:11.217Z,3.33
2023-04-23T00:32:40.033Z,3.78
2023-04-23T00:35:09.602Z,3.33
2023-04-23T00:37:38.218Z,3.53
2023-04-23T00:40:08.414Z,3.45
2023-04-23T00:42:42.136Z,3.25
2023-04-23T00:45:12.365Z,3.38
2023-04-23T00:47:42.464Z,3.40
2023-04-23T00:50:11.624Z,3.47
2023-04-23T00:52:40.815Z,3.40
2023-04-23T00:55:10.097Z,3.60
2023-04-23T00:57:40.869Z,3.40
2023-04-23T01:00:11.626Z,3.28
2023-04-23T01:02:40.379Z,3.60
2023-04-23T01:05:10.616Z,3.80
2023-04-23T01:07:39.937Z,3.60
2023-04-23T01:10:10.800Z,3.60
2023-04-23T01:12:41.251Z,3.75
2023-04-23T01:15:11.198Z,3.40
2023-04-23T01:17:39.968Z,3.78
2023-04-23T01:20:10.116Z,4.03
2023-04-23T01:22:40.783Z,3.60
2023-04-23T01:25:10.784Z,4.00
2023-04-23T01:27:40.468Z,3.92
2023-04-23T01:30:10.921Z,3.88
2023-04-23T01:32:40.413Z,3.85
2023-04-23T01:35:13.240Z,3.97
2023-04-23T01:37:44.657Z,3.88
2023-04-23T01:40:13.706Z,4.00
2023-04-23T01:42:42.398Z,4.07
2023-04-23T01:45:11.827Z,3.97
2023-04-23T01:47:41.497Z,4.28
2023-04-23T01:50:10.954Z,4.22
2023-04-23T01:52:40.394Z,4.30
2023-04-23T01:55:11.073Z,4.05
2023-04-23T01:57:39.915Z,4.85
2023-04-23T02:00:11.524Z,4.47
2023-04-23T02:02:45.041Z,4.30
2023-04-23T02:05:16.586Z,4.40
2023-04-23T02:07:46.331Z,5.10
2023-04-23T02:10:18.598Z,4.60
2023-04-23T02:12:47.817Z,4.38
2023-04-23T02:15:17.578Z,4.20
2023-04-23T02:17:46.288Z,4.80
2023-04-23T02:20:15.283Z,4.70
2023-04-23T02:22:44.910Z,4.80
2023-04-23T02:25:15.694Z,4.93
2023-04-23T02:27:46.006Z,4.72
2023-04-23T02:30:14.906Z,4.60
2023-04-23T02:32:44.165Z,4.55
2023-04-23T02:35:13.385Z,4.30
2023-04-23T02:37:42.539Z,3.92
2023-04-23T02:40:12.357Z,4.50
2023-04-23T02:42:43.224Z,5.00
2023-04-23T02:45:13.827Z,4.60
2023-04-23T02:47:42.491Z,4.10
2023-04-23T02:50:11.513Z,4.53
2023-04-23T02:52:40.492Z,4.10
2023-04-23T02:55:10.865Z,4.32
2023-04-23T02:57:40.282Z,4.28
2023-04-23T03:00:12.326Z,4.57
2023-04-23T03:02:45.478Z,5.13
2023-04-23T03:05:14.267Z,4.20
2023-04-23T03:07:43.753Z,4.57
2023-04-23T03:10:12.837Z,4.22
2023-04-23T03:12:41.446Z,6.13
2023-04-23T03:15:12.102Z,5.75
2023-04-23T03:17:40.863Z,5.47
2023-04-23T03:20:12.496Z,5.35
2023-04-23T03:22:42.051Z,4.88
2023-04-23T03:25:11.228Z,5.45
2023-04-23T03:27:41.038Z,4.55
2023-04-23T03:30:10.947Z,4.70
2023-04-23T03:32:40.212Z,5.05
2023-04-23T03:35:11.099Z,4.40
2023-04-23T03:37:43.460Z,3.95
2023-04-23T03:40:12.679Z,3.55
2023-04-23T03:42:43.749Z,3.75
2023-04-23T03:45:16.718Z,3.78
2023-04-23T03:47:46.128Z,3.50
2023-04-23T03:50:17.492Z,3.13
2023-04-23T03:52:48.951Z,3.25
2023-04-23T03:55:31.981Z,3.17
2023-04-23T03:58:01.737Z,3.25
2023-04-23T04:00:38.561Z,3.40
2023-04-23T04:03:08.535Z,3.42
2023-04-23T04:05:38.732Z,3.25
2023-04-23T04:08:07.111Z,3.50
2023-04-23T04:10:35.983Z,3.70
2023-04-23T04:13:05.778Z,3.03
2023-04-23T04:15:34.500Z,2.80
2023-04-23T04:18:03.149Z,2.83
2023-04-23T04:20:31.729Z,2.63
2023-04-23T04:23:01.348Z,3.47
2023-04-23T04:25:30.576Z,3.13
2023-04-23T04:27:59.261Z,3.28
2023-04-23T04:30:27.921Z,3.17
2023-04-23T04:32:56.590Z,3.05
2023-04-23T04:35:25.761Z,3.40
2023-04-23T04:37:55.444Z,3.17
2023-04-23T04:40:26.473Z,3.40
2023-04-23T04:42:55.315Z,3.30
2023-04-23T04:45:25.797Z,3.47
2023-04-23T04:47:54.427Z,3.60
2023-04-23T04:50:23.169Z,3.90
2023-04-23T04:52:51.870Z,3.85
2023-04-23T04:55:20.786Z,4.00
2023-04-23T04:57:50.524Z,4.07
2023-04-23T05:00:29.429Z,3.93
2023-04-23T05:02:59.060Z,4.05
2023-04-23T05:05:29.199Z,4.37
2023-04-23T05:08:02.063Z,5.30
2023-04-23T05:10:31.253Z,4.82
2023-04-23T05:13:02.065Z,4.93
2023-04-23T05:15:30.760Z,5.03
2023-04-23T05:17:59.484Z,4.70
2023-04-23T05:20:28.072Z,4.40
2023-04-23T05:22:56.889Z,5.03
2023-04-23T05:25:25.773Z,4.87
2023-04-23T05:27:54.396Z,4.47
2023-04-23T05:30:24.817Z,4.57
2023-04-23T05:32:53.272Z,4.53
2023-04-23T05:35:22.075Z,4.80
2023-04-23T05:37:51.409Z,4.97
2023-04-23T05:40:20.119Z,5.10
2023-04-23T05:42:49.131Z,5.78
2023-04-23T05:45:17.846Z,5.30
2023-04-23T05:47:47.758Z,5.72
2023-04-23T05:50:16.389Z,5.90
2023-04-23T05:52:45.064Z,6.17
2023-04-23T05:55:15.650Z,5.90
2023-04-23T05:57:44.264Z,5.93
2023-04-23T06:00:13.740Z,5.30
2023-04-23T06:02:43.045Z,4.93
2023-04-23T06:05:13.997Z,5.37
2023-04-23T06:07:43.243Z,5.80
2023-04-23T06:10:12.724Z,6.17
2023-04-23T06:12:42.296Z,6.77
2023-04-23T06:15:11.715Z,6.40
2023-04-23T06:17:40.527Z,8.33
2023-04-23T06:20:11.837Z,8.23
2023-04-23T06:22:41.836Z,7.13
2023-04-23T06:25:11.133Z,6.80
2023-04-23T06:27:39.704Z,6.73
2023-04-23T06:30:15.921Z,7.63
2023-04-23T06:32:45.731Z,7.40
2023-04-23T06:35:14.388Z,6.40
2023-04-23T06:37:44.290Z,7.18
2023-04-23T06:40:13.361Z,6.75
2023-04-23T06:42:41.999Z,7.10
2023-04-23T06:45:16.453Z,8.18
2023-04-23T06:47:45.132Z,7.00
2023-04-23T06:50:13.817Z,7.37
2023-04-23T06:52:44.072Z,7.40
2023-04-23T06:55:13.206Z,6.93
2023-04-23T06:57:41.567Z,7.63
2023-04-23T07:00:12.815Z,7.30
2023-04-23T07:02:43.944Z,6.80
2023-04-23T07:05:12.933Z,8.83
2023-04-23T07:07:43.557Z,10.60
2023-04-23T07:10:15.528Z,8.37
2023-04-23T07:12:46.009Z,8.70
2023-04-23T07:15:14.611Z,13.83
2023-04-23T07:17:43.077Z,12.23
2023-04-23T07:20:12.205Z,13.70
2023-04-23T07:22:41.301Z,7.77
2023-04-23T07:25:11.676Z,8.88
2023-04-23T07:27:40.284Z,6.97
2023-04-23T07:30:09.934Z,8.00
2023-04-23T07:32:38.619Z,9.63
2023-04-23T07:35:10.387Z,8.40
2023-04-23T07:37:39.096Z,8.13
2023-04-23T07:40:10.755Z,8.60
2023-04-23T07:42:39.508Z,7.90
2023-04-23T07:45:09.236Z,9.77
2023-04-23T07:47:37.538Z,10.33
2023-04-23T07:50:07.399Z,7.90
2023-04-23T07:52:36.259Z,12.30
2023-04-23T07:55:05.180Z,11.32
2023-04-23T07:57:35.131Z,14.07
2023-04-23T08:00:04.479Z,11.10
2023-04-23T08:02:40.506Z,10.20
2023-04-23T08:05:10.192Z,7.70
2023-04-23T08:07:38.505Z,10.77
2023-04-23T08:10:08.129Z,7.75
2023-04-23T08:12:38.250Z,7.95
2023-04-23T08:15:08.436Z,13.03
2023-04-23T08:17:41.665Z,11.50
2023-04-23T08:20:11.411Z,7.93
2023-04-23T08:22:39.996Z,7.57
2023-04-23T08:25:09.411Z,6.75
2023-04-23T08:27:39.586Z,7.72
2023-04-23T08:30:09.653Z,5.78
2023-04-23T08:32:40.139Z,6.28
2023-04-23T08:35:09.483Z,6.13
2023-04-23T08:37:39.091Z,6.32
2023-04-23T08:40:09.561Z,5.32
2023-04-23T08:42:46.322Z,5.95
2023-04-23T08:45:15.726Z,6.43
2023-04-23T08:47:44.949Z,5.50
2023-04-23T08:50:16.488Z,5.50
2023-04-23T08:52:51.614Z,4.70
2023-04-23T08:55:21.637Z,4.50
2023-04-23T08:57:52.455Z,4.95
2023-04-23T09:00:23.180Z,4.47
2023-04-23T09:02:52.142Z,4.75
2023-04-23T09:05:20.946Z,4.55
2023-04-23T09:07:49.536Z,4.32
2023-04-23T09:10:18.737Z,4.15
2023-04-23T09:12:48.184Z,3.70
2023-04-23T09:15:18.931Z,3.83
2023-04-23T09:17:49.968Z,3.33
2023-04-23T09:20:18.799Z,3.42
2023-04-23T09:22:48.383Z,3.42
2023-04-23T09:25:19.220Z,3.33
2023-04-23T09:27:48.982Z,3.30
2023-04-23T09:30:19.710Z,3.15
2023-04-23T09:32:49.590Z,3.03
2023-04-23T09:35:20.843Z,2.78
2023-04-23T09:37:52.678Z,2.92
2023-04-23T09:40:24.890Z,3.03
2023-04-23T09:42:55.175Z,3.60
2023-04-23T09:45:26.198Z,4.10
2023-04-23T09:47:56.603Z,4.35
2023-04-23T09:50:34.994Z,5.30
2023-04-23T09:53:04.174Z,5.28
2023-04-23T09:55:38.539Z,4.72
2023-04-23T09:58:12.045Z,5.45
2023-04-23T10:00:42.732Z,4.60
2023-04-23T10:03:12.131Z,3.80
2023-04-23T10:05:59.435Z,3.00
2023-04-23T10:08:30.127Z,3.08
2023-04-23T10:11:10.158Z,3.03
2023-04-23T10:13:47.998Z,3.00
2023-04-23T10:16:24.355Z,3.65
2023-04-23T10:18:57.874Z,3.63
2023-04-23T10:21:36.692Z,3.28
2023-04-23T10:24:20.120Z,2.28
2023-04-23T10:26:51.040Z,2.70
2023-04-23T10:29:25.349Z,2.88
2023-04-23T10:31:57.620Z,2.25
2023-04-23T10:34:27.584Z,2.08
2023-04-23T10:36:59.267Z,2.63
2023-04-23T10:39:31.145Z,2.80
2023-04-23T10:42:01.158Z,2.90
2023-04-23T10:47:17.024Z,2.72
2023-04-23T10:49:45.893Z,2.95
2023-04-23T10:52:21.471Z,3.15
2023-04-23T10:54:59.901Z,2.95
2023-04-23T10:57:28.549Z,3.25
2023-04-23T10:59:59.190Z,3.17
2023-04-23T11:02:45.178Z,2.65
2023-04-23T11:05:15.452Z,2.55
2023-04-23T11:07:44.069Z,1.95
2023-04-23T11:10:16.508Z,1.67
2023-04-23T11:12:46.016Z,1.70
2023-04-23T11:15:17.205Z,2.13
2023-04-23T11:18:03.137Z,1.80
2023-04-23T11:20:31.769Z,1.33
2023-04-23T11:23:00.491Z,1.50
2023-04-23T11:25:30.528Z,1.52
2023-04-23T11:28:00.418Z,1.95
2023-04-23T11:30:31.234Z,1.92
2023-04-23T11:33:01.427Z,1.75
2023-04-23T11:35:39.643Z,1.75
2023-04-23T11:38:11.088Z,1.80
2023-04-23T11:40:40.688Z,2.00
2023-04-23T11:43:09.664Z,1.80
2023-04-23T11:45:38.717Z,1.92
2023-04-23T11:48:08.952Z,2.20
2023-04-23T11:50:39.307Z,2.25
2023-04-23T11:53:09.951Z,2.17
2023-04-23T11:55:43.923Z,2.00
2023-04-23T11:58:12.634Z,2.35
2023-04-23T12:00:41.233Z,2.40
2023-04-23T12:03:09.759Z,2.90
2023-04-23T12:05:43.537Z,2.45
2023-04-23T12:08:13.759Z,2.38
2023-04-23T12:10:50.153Z,2.20
2023-04-23T12:13:20.436Z,2.17
2023-04-23T12:15:50.289Z,2.20
2023-04-23T12:18:20.485Z,2.05
2023-04-23T12:20:50.072Z,2.13
2023-04-23T12:23:18.715Z,2.10
2023-04-23T12:25:47.539Z,1.90
2023-04-23T12:28:16.410Z,2.20
2023-04-23T12:30:46.120Z,1.80
2023-04-23T12:33:14.841Z,1.90
2023-04-23T12:35:44.807Z,1.70
2023-04-23T12:38:25.253Z,2.13
2023-04-23T12:40:54.075Z,2.38
2023-04-23T12:43:23.005Z,1.92
2023-04-23T12:45:52.104Z,2.22
2023-04-23T12:48:20.930Z,1.65
2023-04-23T12:50:50.009Z,1.80
2023-04-23T12:53:20.670Z,1.77
2023-04-23T12:55:50.505Z,1.80
2023-04-23T12:58:19.250Z,2.20
2023-04-23T13:00:48.148Z,1.50
2023-04-23T13:03:17.733Z,1.52
2023-04-23T13:05:46.520Z,1.80
2023-04-23T13:08:15.085Z,1.80
2023-04-23T13:10:44.909Z,1.90
2023-04-23T13:13:14.866Z,1.65
2023-04-23T13:15:44.253Z,2.00
2023-04-23T13:18:12.948Z,1.75
2023-04-23T13:20:41.267Z,1.83
2023-04-23T13:23:11.428Z,1.67
2023-04-23T13:25:40.579Z,1.83
2023-04-23T13:28:09.298Z,1.52
2023-04-23T13:30:39.430Z,1.77
2023-04-23T13:33:08.060Z,2.00
2023-04-23T13:35:37.752Z,1.77
2023-04-23T13:38:06.185Z,1.70
2023-04-23T13:40:35.528Z,1.80
2023-04-23T13:43:04.380Z,1.60
2023-04-23T13:45:33.332Z,1.77
2023-04-23T13:48:05.032Z,1.70
2023-04-23T13:50:33.774Z,1.80
2023-04-23T13:53:02.564Z,1.90
2023-04-23T13:55:32.603Z,1.67
2023-04-23T13:58:01.051Z,1.52
2023-04-23T14:00:31.122Z,1.52
2023-04-23T14:02:59.907Z,1.60
2023-04-23T14:05:30.175Z,1.60
2023-04-23T14:08:00.133Z,2.00
2023-04-23T14:10:29.320Z,1.58
2023-04-23T14:12:58.530Z,1.70
2023-04-23T14:15:27.550Z,1.85
2023-04-23T14:17:56.304Z,1.60
2023-04-23T14:20:25.405Z,1.98
2023-04-23T14:23:12.069Z,1.92
2023-04-23T14:25:46.815Z,1.75
2023-04-23T14:28:29.738Z,1.90
2023-04-23T14:30:59.237Z,1.55
2023-04-23T14:33:27.917Z,1.48
2023-04-23T14:35:56.515Z,1.65
2023-04-23T14:38:26.786Z,1.60
2023-04-23T14:40:57.373Z,1.88
2023-04-23T14:43:26.013Z,1.55
2023-04-23T14:45:54.918Z,1.60
2023-04-23T14:48:23.201Z,1.60
2023-04-23T14:50:51.908Z,1.77
2023-04-23T14:53:21.494Z,1.30
2023-04-23T14:55:51.564Z,1.52
2023-04-23T14:58:20.449Z,1.52
2023-04-23T15:00:50.967Z,1.83
2023-04-23T15:03:19.509Z,1.75
2023-04-23T15:05:47.989Z,1.60
2023-04-23T15:08:16.615Z,1.60
2023-04-23T15:10:45.340Z,1.80
2023-04-23T15:13:40.364Z,1.58
2023-04-23T15:16:40.556Z,1.67
2023-04-23T15:19:14.911Z,1.70
2023-04-23T15:21:43.595Z,1.75
2023-04-23T15:24:12.234Z,1.80
2023-04-23T15:26:41.158Z,1.45
2023-04-23T15:29:11.395Z,1.63
2023-04-23T15:31:40.106Z,1.60
2023-04-23T15:34:09.570Z,1.25
2023-04-23T15:36:38.797Z,1.75
2023-04-23T15:39:09.653Z,1.50
2023-04-23T15:41:40.583Z,1.60
2023-04-23T15:44:12.641Z,1.70
2023-04-23T15:46:41.355Z,1.98
2023-04-23T15:49:10.283Z,1.45
2023-04-23T15:51:39.317Z,1.50
2023-04-23T15:54:09.202Z,1.80
2023-04-23T15:56:38.280Z,1.60
2023-04-23T15:59:07.758Z,1.60
2023-04-23T16:01:37.947Z,1.98
2023-04-23T16:04:10.847Z,1.70
2023-04-23T16:06:40.738Z,1.50
2023-04-23T16:09:09.707Z,1.80
2023-04-23T16:11:39.376Z,1.65
2023-04-23T16:14:09.277Z,1.90
2023-04-23T16:16:39.771Z,1.80
2023-04-23T16:19:08.568Z,2.08
2023-04-23T16:21:37.229Z,2.20
2023-04-23T16:24:07.605Z,2.22
2023-04-23T16:26:37.410Z,2.20
2023-04-23T16:31:41.857Z,2.00
2023-04-23T16:34:10.482Z,2.00
2023-04-23T16:36:39.381Z,2.30
2023-04-23T16:39:07.899Z,2.20
2023-04-23T16:41:36.695Z,2.28
2023-04-23T16:44:05.499Z,2.20
2023-04-23T16:46:34.413Z,2.42
2023-04-23T16:49:04.515Z,2.10
2023-04-23T16:51:33.252Z,2.20
2023-04-23T16:54:02.116Z,2.28
2023-04-23T16:56:31.072Z,2.60
2023-04-23T16:59:00.300Z,2.30
2023-04-23T17:01:29.316Z,2.50
2023-04-23T17:03:58.107Z,2.20
2023-04-23T17:06:30.662Z,2.30
2023-04-23T17:09:01.201Z,2.50
2023-04-23T17:11:31.201Z,2.80
2023-04-23T17:14:00.069Z,2.30
2023-04-23T17:16:29.153Z,2.47
2023-04-23T17:18:58.224Z,2.33
2023-04-23T17:21:28.556Z,2.33
2023-04-23T17:23:57.235Z,2.20
2023-04-23T17:26:26.475Z,2.20
2023-04-23T17:28:55.195Z,2.35
2023-04-23T17:31:23.816Z,2.42
2023-04-23T17:33:53.645Z,3.03
2023-04-23T17:36:22.322Z,2.75
2023-04-23T17:38:52.313Z,2.95
2023-04-23T17:41:22.719Z,2.90
2023-04-23T17:43:51.675Z,2.90
2023-04-23T17:46:20.310Z,2.70
2023-04-23T17:48:49.234Z,3.25
2023-04-23T17:51:18.292Z,3.05
2023-04-23T17:53:48.776Z,3.13
2023-04-23T17:56:18.770Z,3.15
2023-04-23T17:58:47.722Z,3.20
2023-04-23T18:01:17.785Z,3.40
2023-04-23T18:03:49.053Z,3.45
2023-04-23T18:06:17.815Z,3.15
2023-04-23T18:08:46.538Z,3.05
2023-04-23T18:11:15.296Z,3.33
2023-04-23T18:13:45.608Z,3.08
2023-04-23T18:16:14.345Z,3.25
2023-04-23T18:18:43.002Z,2.90
2023-04-23T18:21:13.390Z,3.30
2023-04-23T18:23:42.058Z,3.42
2023-04-23T18:26:10.682Z,3.60
2023-04-23T18:28:39.335Z,3.63
2023-04-23T18:31:09.635Z,4.15
2023-04-23T18:33:44.081Z,4.43
2023-04-23T18:36:24.997Z,3.88
2023-04-23T18:38:53.894Z,4.18
2023-04-23T18:41:22.476Z,3.90
2023-04-23T18:43:51.142Z,4.00
2023-04-23T18:46:23.005Z,4.05
2023-04-23T18:49:01.032Z,4.20
2023-04-23T18:51:38.120Z,4.20
2023-04-23T18:54:06.899Z,3.80
2023-04-23T18:56:35.711Z,4.40
2023-04-23T18:59:04.494Z,4.30
2023-04-23T19:01:34.697Z,4.28
2023-04-23T19:04:03.970Z,3.53
2023-04-23T19:06:32.693Z,3.90
2023-04-23T19:09:02.365Z,4.00
2023-04-23T19:11:35.036Z,4.95
2023-04-23T19:14:03.806Z,4.43
2023-04-23T19:16:34.107Z,4.10
2023-04-23T19:19:02.956Z,3.75
2023-04-23T19:21:31.705Z,3.17
2023-04-23T19:24:00.471Z,4.15
2023-04-23T19:26:29.641Z,4.22
2023-04-23T19:28:58.282Z,3.50
2023-04-23T19:31:26.984Z,3.83
2023-04-23T19:33:57.935Z,2.25
2023-04-23T19:36:26.407Z,1.38
2023-04-23T19:38:55.047Z,1.45
2023-04-23T19:41:23.798Z,1.30
2023-04-23T19:43:53.418Z,1.50
2023-04-23T19:46:22.444Z,1.30
2023-04-23T19:48:51.090Z,1.58
2023-04-23T19:51:21.925Z,1.65
2023-04-23T19:53:50.534Z,1.38
2023-04-23T19:56:19.226Z,1.67
2023-04-23T19:58:50.865Z,1.67
2023-04-23T20:01:20.985Z,1.50
2023-04-23T20:03:52.042Z,1.67
2023-04-23T20:06:22.232Z,1.33
2023-04-23T20:09:07.520Z,1.77
2023-04-23T20:11:37.321Z,1.52
2023-04-23T20:14:06.588Z,1.58
2023-04-23T20:16:36.202Z,1.50
2023-04-23T20:19:07.214Z,1.42
2023-04-23T20:21:37.615Z,1.27
2023-04-23T20:24:08.411Z,1.50
2023-04-23T20:26:37.502Z,1.55
2023-04-23T20:29:06.651Z,1.48
2023-04-23T20:31:35.493Z,1.55
2023-04-23T20:34:04.209Z,1.70
2023-04-23T20:36:33.650Z,2.10
2023-04-23T20:39:05.257Z,2.63
2023-04-23T20:41:36.748Z,2.60
2023-04-23T20:44:09.037Z,2.35
2023-04-23T20:46:38.485Z,2.53
2023-04-23T20:49:07.503Z,2.15
2023-04-23T20:51:35.928Z,1.98
2023-04-23T20:54:06.685Z,2.15
2023-04-23T20:56:35.311Z,2.22
2023-04-23T20:59:04.148Z,1.80
2023-04-23T21:01:34.914Z,1.80
2023-04-23T21:04:04.032Z,1.50
2023-04-23T21:06:33.514Z,1.70
2023-04-23T21:09:02.532Z,1.77
2023-04-23T21:11:33.755Z,1.92
2023-04-23T21:14:02.558Z,2.10
2023-04-23T21:16:31.294Z,2.70
2023-04-23T21:19:00.034Z,2.97
2023-04-23T21:21:29.995Z,1.90
2023-04-23T21:23:59.606Z,2.10
2023-04-23T21:26:28.751Z,1.92
2023-04-23T21:28:58.922Z,2.10
2023-04-23T21:31:44.936Z,1.98
2023-04-23T21:34:14.585Z,1.70
2023-04-23T21:36:44.688Z,1.60
2023-04-23T21:39:13.469Z,2.03
2023-04-23T21:41:42.200Z,1.77
2023-04-23T21:44:12.244Z,1.88
2023-04-23T21:46:43.206Z,2.00
2023-04-23T21:49:12.003Z,1.85
2023-04-23T21:51:41.079Z,1.73
2023-04-23T21:54:09.946Z,2.08
2023-04-23T21:56:39.128Z,1.83
2023-04-23T21:59:07.736Z,2.30
2023-04-23T22:01:37.721Z,2.45
2023-04-23T22:04:07.068Z,3.35
2023-04-23T22:06:35.782Z,2.83
2023-04-23T22:09:04.378Z,2.80
2023-04-23T22:11:34.588Z,2.45
2023-04-23T22:14:03.396Z,2.70
2023-04-23T22:16:32.108Z,2.40
2023-04-23T22:19:02.459Z,2.70
2023-04-23T22:21:32.491Z,2.10
2023-04-23T22:24:03.349Z,2.13
2023-04-23T22:26:33.970Z,2.20
2023-04-23T22:29:02.739Z,2.00
2023-04-23T22:31:31.387Z,2.33
2023-04-23T22:34:01.360Z,2.38
2023-04-23T22:36:29.994Z,2.60
2023-04-23T22:38:58.573Z,2.20
2023-04-23T22:41:27.475Z,2.72
2023-04-23T22:43:56.344Z,2.20
2023-04-23T22:46:24.953Z,2.20
2023-04-23T22:48:53.520Z,2.30
2023-04-23T22:51:23.608Z,2.33
2023-04-23T22:53:52.279Z,2.92
2023-04-23T22:56:21.076Z,2.90
2023-04-23T22:58:49.654Z,2.70
2023-04-23T23:01:18.279Z,2.35
2023-04-23T23:03:46.923Z,2.40
2023-04-23T23:06:16.822Z,2.47
2023-04-23T23:08:47.045Z,2.60
2023-04-23T23:11:15.768Z,2.20
2023-04-23T23:13:45.422Z,2.40
2023-04-23T23:16:14.273Z,2.60
2023-04-23T23:18:42.959Z,2.37
2023-04-23T23:21:11.659Z,2.43
2023-04-23T23:23:40.648Z,2.80
2023-04-23T23:26:10.700Z,2.80
2023-04-23T23:28:39.348Z,2.58
2023-04-23T23:31:08.304Z,3.10
2023-04-23T23:33:39.420Z,2.63
2023-04-23T23:36:09.357Z,2.90
2023-04-23T23:38:37.963Z,2.90
2023-04-23T23:41:06.615Z,2.92
2023-04-23T23:43:36.870Z,3.10
2023-04-23T23:46:05.560Z,3.05
2023-04-23T23:48:34.247Z,3.47
2023-04-23T23:51:02.885Z,3.47
2023-04-23T23:53:31.896Z,3.70
2023-04-23T23:56:00.915Z,4.00
2023-04-23T23:58:29.787Z,3.57
